Time;durP1;ratioP1;P1;durP2;ratioP2;P2;SDS_P1;SDS_P2;PMS_P1;PMS_P2;Temp;Humidity;BMP_temperature;BMP_pressure;BME280_temperature;BME280_humidity;BME280_pressure;Samples;Min_cycle;Max_cycle;Signal;HPM_P1;HPM_P2
2022/10/24 00:02:21;;;;;;;11.38;5.35;;;;;;;;;;5048479;28;20029;-74
2022/10/24 00:04:47;;;;;;;12.15;5.38;;;;;;;;;;5046440;28;20021;-75
2022/10/24 00:07:13;;;;;;;9.52;4.93;;;;;;;;;;5046353;28;20044;-76
2022/10/24 00:09:39;;;;;;;6.88;4.90;;;;;;;;;;5052149;28;20475;-75
2022/10/24 00:12:06;;;;;;;9.77;5.35;;;;;;;;;;5045775;28;20033;-75
2022/10/24 00:14:32;;;;;;;10.07;5.35;;;;;;;;;;5048758;28;20417;-75
2022/10/24 00:16:58;;;;;;;16.05;6.10;;;;;;;;;;5056940;28;20028;-75
2022/10/24 00:19:24;;;;;;;10.63;5.22;;;;;;;;;;5053234;28;20406;-75
2022/10/24 00:21:50;;;;;;;9.95;5.22;;;;;;;;;;5046812;28;20164;-74
2022/10/24 00:24:17;;;;;;;9.75;5.15;;;;;;;;;;5047720;28;20017;-74
2022/10/24 00:26:43;;;;;;;18.25;5.97;;;;;;;;;;5051718;28;20036;-75
2022/10/24 00:29:09;;;;;;;10.10;5.25;;;;;;;;;;5043570;28;20171;-75
2022/10/24 00:31:36;;;;;;;8.50;4.70;;;;;;;;;;5055281;28;20025;-75
2022/10/24 00:34:02;;;;;;;12.32;5.78;;;;;;;;;;5037564;28;20088;-75
2022/10/24 00:36:28;;;;;;;10.80;5.50;;;;;;;;;;5056612;28;20100;-75
2022/10/24 00:38:54;;;;;;;10.43;5.22;;;;;;;;;;5060758;28;20021;-76
2022/10/24 00:41:47;;;;;;;11.00;4.72;;;;;;;;;;5053838;28;20478;-76
2022/10/24 00:44:13;;;;;;;12.68;4.80;;;;;;;;;;5032835;28;20049;-75
2022/10/24 00:46:41;;;;;;;10.07;4.88;;;;;;;;;;5030369;28;20482;-75
2022/10/24 00:49:12;;;;;;;14.40;5.10;;;;;;;;;;5051427;28;20033;-75
2022/10/24 00:51:38;;;;;;;14.32;5.75;;;;;;;;;;5045791;28;20557;-75
2022/10/24 00:54:05;;;;;;;12.60;5.50;;;;;;;;;;5048839;28;20128;-75
2022/10/24 00:56:36;;;;;;;12.60;5.50;;;;;;;;;;5045606;28;20044;-75
2022/10/24 00:59:03;;;;;;;13.80;4.80;;;;;;;;;;5050839;28;20029;-75
2022/10/24 01:01:30;;;;;;;12.00;5.13;;;;;;;;;;5052096;28;20108;-75
2022/10/24 01:03:56;;;;;;;13.93;5.28;;;;;;;;;;5049662;28;20066;-75
2022/10/24 01:06:22;;;;;;;11.90;5.60;;;;;;;;;;5052249;28;20041;-75
2022/10/24 01:08:51;;;;;;;12.82;5.55;;;;;;;;;;5049156;28;20021;-75
2022/10/24 01:11:35;;;;;;;12.00;5.55;;;;;;;;;;5057701;28;20029;-75
2022/10/24 01:14:01;;;;;;;14.68;5.28;;;;;;;;;;5049400;28;20068;-75
2022/10/24 01:16:27;;;;;;;13.93;5.55;;;;;;;;;;5052013;28;20471;-75
2022/10/24 01:18:56;;;;;;;11.10;5.35;;;;;;;;;;5048103;28;20044;-75
2022/10/24 01:21:42;;;;;;;16.20;5.50;;;;;;;;;;5051439;28;20387;-74
2022/10/24 01:24:11;;;;;;;15.70;5.45;;;;;;;;;;5052242;28;20029;-74
2022/10/24 01:26:40;;;;;;;13.32;5.63;;;;;;;;;;5044695;28;20103;-75
2022/10/24 01:29:06;;;;;;;14.85;5.80;;;;;;;;;;5047639;28;20068;-75
2022/10/24 01:31:41;;;;;;;11.98;5.32;;;;;;;;;;5053064;28;20048;-74
2022/10/24 01:34:10;;;;;;;10.75;4.97;;;;;;;;;;5045476;28;20033;-75
2022/10/24 01:36:43;;;;;;;11.25;5.40;;;;;;;;;;5041427;28;20025;-75
2022/10/24 01:39:13;;;;;;;14.68;5.85;;;;;;;;;;5050133;28;20120;-74
2022/10/24 01:41:39;;;;;;;14.35;4.82;;;;;;;;;;5050006;28;20021;-75
2022/10/24 01:44:08;;;;;;;18.23;5.53;;;;;;;;;;5036815;28;20081;-75
2022/10/24 01:46:38;;;;;;;13.02;5.28;;;;;;;;;;5052268;28;20508;-75
2022/10/24 01:49:16;;;;;;;12.00;5.10;;;;;;;;;;5049070;28;20029;-74
2022/10/24 01:51:43;;;;;;;15.90;5.95;;;;;;;;;;5063384;28;20049;-75
2022/10/24 01:54:10;;;;;;;11.82;6.30;;;;;;;;;;5061252;28;20386;-75
2022/10/24 01:56:36;;;;;;;13.38;5.32;;;;;;;;;;5055091;28;20146;-75
2022/10/24 01:59:07;;;;;;;11.07;4.93;;;;;;;;;;5058583;28;20079;-75
2022/10/24 02:01:34;;;;;;;16.52;5.25;;;;;;;;;;5054430;28;20435;-75
2022/10/24 02:04:03;;;;;;;12.48;5.72;;;;;;;;;;5053947;28;20475;-75
2022/10/24 02:06:29;;;;;;;12.77;5.90;;;;;;;;;;5060765;28;20033;-74
2022/10/24 02:08:57;;;;;;;14.95;6.15;;;;;;;;;;5051930;28;20475;-75
2022/10/24 02:11:23;;;;;;;16.10;5.95;;;;;;;;;;5054787;28;20038;-74
2022/10/24 02:13:55;;;;;;;11.07;5.13;;;;;;;;;;5056495;28;20043;-75
2022/10/24 02:16:21;;;;;;;14.80;5.32;;;;;;;;;;5055543;28;20053;-75
2022/10/24 02:18:50;;;;;;;14.00;5.80;;;;;;;;;;5054019;28;20376;-74
2022/10/24 02:21:31;;;;;;;18.23;5.65;;;;;;;;;;5051838;28;20043;-75
2022/10/24 02:24:15;;;;;;;14.30;5.30;;;;;;;;;;5053301;28;20025;-75
2022/10/24 02:27:01;;;;;;;15.02;5.30;;;;;;;;;;5053120;28;20045;-75
2022/10/24 02:29:29;;;;;;;15.32;5.47;;;;;;;;;;5049101;28;20048;-75
2022/10/24 02:31:57;;;;;;;17.13;5.60;;;;;;;;;;5051658;28;20025;-75
2022/10/24 02:34:25;;;;;;;10.60;5.22;;;;;;;;;;5057066;28;20021;-75
2022/10/24 02:36:53;;;;;;;16.60;5.43;;;;;;;;;;5050001;28;20025;-75
2022/10/24 02:39:19;;;;;;;15.30;5.55;;;;;;;;;;5046379;28;20021;-75
2022/10/24 02:41:46;;;;;;;16.80;5.75;;;;;;;;;;5049515;28;20474;-75
2022/10/24 02:44:14;;;;;;;17.27;5.32;;;;;;;;;;5048243;28;20026;-75
2022/10/24 02:46:42;;;;;;;14.55;5.97;;;;;;;;;;5055051;28;20083;-74
2022/10/24 02:49:08;;;;;;;16.23;6.63;;;;;;;;;;5054525;28;20088;-75
2022/10/24 02:51:36;;;;;;;17.48;6.05;;;;;;;;;;5048110;28;20043;-74
2022/10/24 02:54:02;;;;;;;17.92;5.95;;;;;;;;;;5056137;28;20025;-75
2022/10/24 02:56:29;;;;;;;16.63;6.30;;;;;;;;;;5051986;28;20029;-75
2022/10/24 02:58:55;;;;;;;14.70;6.32;;;;;;;;;;5053536;28;20024;-75
2022/10/24 03:01:21;;;;;;;13.60;6.47;;;;;;;;;;5051911;28;20104;-75
2022/10/24 03:03:47;;;;;;;16.90;6.38;;;;;;;;;;5049698;28;20040;-74
2022/10/24 03:06:13;;;;;;;16.02;6.60;;;;;;;;;;5049769;28;20387;-75
2022/10/24 03:08:39;;;;;;;14.02;6.18;;;;;;;;;;5054346;28;20021;-75
2022/10/24 03:11:06;;;;;;;12.48;6.30;;;;;;;;;;5050966;28;20045;-75
2022/10/24 03:13:32;;;;;;;12.75;6.68;;;;;;;;;;5052462;28;20029;-73
2022/10/24 03:15:58;;;;;;;14.18;6.18;;;;;;;;;;5047616;28;20021;-76
2022/10/24 03:18:24;;;;;;;16.52;6.88;;;;;;;;;;5052597;28;20107;-75
2022/10/24 03:20:50;;;;;;;14.55;6.88;;;;;;;;;;5052530;28;20041;-75
2022/10/24 03:23:18;;;;;;;15.70;7.00;;;;;;;;;;5052698;28;20371;-75
2022/10/24 03:25:44;;;;;;;17.00;7.53;;;;;;;;;;5047250;28;20059;-74
2022/10/24 03:28:10;;;;;;;16.05;6.50;;;;;;;;;;5057399;28;20125;-75
2022/10/24 03:30:36;;;;;;;16.88;7.40;;;;;;;;;;5051318;28;20029;-73
2022/10/24 03:33:02;;;;;;;15.88;6.63;;;;;;;;;;5052104;28;20044;-74
2022/10/24 03:35:28;;;;;;;16.15;7.28;;;;;;;;;;5044474;28;20025;-75
2022/10/24 03:37:55;;;;;;;17.05;7.22;;;;;;;;;;5059221;28;20051;-74
2022/10/24 03:40:21;;;;;;;16.70;7.80;;;;;;;;;;5053435;28;20025;-74
2022/10/24 03:42:47;;;;;;;16.77;7.10;;;;;;;;;;5052856;28;20029;-75
2022/10/24 03:45:13;;;;;;;14.18;7.50;;;;;;;;;;5048616;28;20028;-75
2022/10/24 03:47:39;;;;;;;13.93;7.28;;;;;;;;;;5051061;28;20636;-75
2022/10/24 03:50:05;;;;;;;12.57;7.20;;;;;;;;;;5054579;28;20100;-74
2022/10/24 03:52:36;;;;;;;12.52;7.85;;;;;;;;;;5045323;28;20157;-74
2022/10/24 03:55:02;;;;;;;14.68;7.70;;;;;;;;;;5051321;28;20151;-74
2022/10/24 03:57:28;;;;;;;14.75;8.43;;;;;;;;;;5051440;28;20013;-74
2022/10/24 03:59:54;;;;;;;16.13;8.45;;;;;;;;;;5048626;28;20033;-74
2022/10/24 04:02:20;;;;;;;17.48;9.07;;;;;;;;;;5055133;28;20115;-74
2022/10/24 04:04:46;;;;;;;16.02;8.75;;;;;;;;;;5048307;28;20075;-74
2022/10/24 04:07:12;;;;;;;16.08;8.13;;;;;;;;;;5056118;28;20051;-74
2022/10/24 04:09:39;;;;;;;15.80;8.73;;;;;;;;;;5052605;28;20022;-74
2022/10/24 04:12:05;;;;;;;16.60;8.18;;;;;;;;;;5046259;28;20065;-75
2022/10/24 04:14:31;;;;;;;16.60;8.27;;;;;;;;;;5049909;28;20107;-74
2022/10/24 04:16:57;;;;;;;17.50;8.13;;;;;;;;;;5059964;28;20020;-73
2022/10/24 04:19:23;;;;;;;14.48;8.13;;;;;;;;;;5053258;28;20045;-76
2022/10/24 04:21:49;;;;;;;12.57;7.88;;;;;;;;;;5051716;28;20033;-75
2022/10/24 04:24:15;;;;;;;18.02;8.50;;;;;;;;;;5054172;28;20032;-75
2022/10/24 04:26:42;;;;;;;17.88;8.60;;;;;;;;;;5052437;28;20562;-74
2022/10/24 04:29:08;;;;;;;17.50;7.95;;;;;;;;;;5057414;28;20036;-74
2022/10/24 04:31:34;;;;;;;18.17;8.10;;;;;;;;;;5051369;28;20561;-73
2022/10/24 04:34:00;;;;;;;17.88;7.72;;;;;;;;;;5054868;28;20661;-75
2022/10/24 04:36:26;;;;;;;17.67;7.18;;;;;;;;;;5055254;28;20029;-75
2022/10/24 04:38:52;;;;;;;21.30;8.27;;;;;;;;;;5053780;28;20021;-75
2022/10/24 04:41:18;;;;;;;17.65;7.07;;;;;;;;;;5048469;28;20025;-74
2022/10/24 04:43:44;;;;;;;15.18;7.55;;;;;;;;;;5048643;28;20074;-74
2022/10/24 04:46:13;;;;;;;10.93;6.63;;;;;;;;;;5058368;28;20037;-74
2022/10/24 04:48:43;;;;;;;13.93;7.28;;;;;;;;;;5053806;28;20061;-75
2022/10/24 04:51:09;;;;;;;22.02;7.72;;;;;;;;;;5048554;28;20386;-74
2022/10/24 04:53:35;;;;;;;24.45;9.00;;;;;;;;;;5054565;28;20024;-75
2022/10/24 04:56:01;;;;;;;22.73;7.78;;;;;;;;;;5058091;28;20020;-74
2022/10/24 04:58:27;;;;;;;20.50;8.55;;;;;;;;;;5055482;28;20070;-73
2022/10/24 05:00:53;;;;;;;19.92;7.97;;;;;;;;;;5034442;28;20024;-74
2022/10/24 05:03:21;;;;;;;26.27;8.23;;;;;;;;;;5053362;28;20497;-74
2022/10/24 05:05:47;;;;;;;28.75;9.13;;;;;;;;;;5046172;28;20034;-75
2022/10/24 05:08:13;;;;;;;25.52;9.27;;;;;;;;;;5044520;28;20037;-74
2022/10/24 05:10:39;;;;;;;22.08;8.23;;;;;;;;;;5050009;28;20117;-75
2022/10/24 05:13:24;;;;;;;25.50;9.25;;;;;;;;;;5051004;28;20033;-77
2022/10/24 05:15:50;;;;;;;24.95;8.82;;;;;;;;;;5024938;28;20028;-75
2022/10/24 05:18:16;;;;;;;24.13;8.50;;;;;;;;;;5051121;28;20036;-75
2022/10/24 05:20:42;;;;;;;27.52;9.07;;;;;;;;;;5057926;28;20037;-75
2022/10/24 05:23:08;;;;;;;38.70;9.55;;;;;;;;;;5056968;28;20100;-72
2022/10/24 05:25:34;;;;;;;24.85;9.38;;;;;;;;;;5038216;28;20639;-74
2022/10/24 05:28:00;;;;;;;24.48;9.52;;;;;;;;;;5055731;28;20055;-74
2022/10/24 05:30:26;;;;;;;23.77;9.27;;;;;;;;;;5058884;28;20025;-74
2022/10/24 05:32:52;;;;;;;24.40;9.95;;;;;;;;;;5052256;28;20103;-73
2022/10/24 05:35:18;;;;;;;24.60;10.02;;;;;;;;;;5049785;28;20024;-75
2022/10/24 05:37:44;;;;;;;26.55;9.27;;;;;;;;;;5060111;28;20478;-74
2022/10/24 05:40:11;;;;;;;26.77;9.32;;;;;;;;;;5055832;28;20112;-74
2022/10/24 05:42:37;;;;;;;21.80;9.13;;;;;;;;;;5054746;28;20032;-74
2022/10/24 05:45:06;;;;;;;31.10;9.02;;;;;;;;;;5055477;28;20032;-74
2022/10/24 05:47:32;;;;;;;29.45;9.43;;;;;;;;;;5059952;28;20120;-75
2022/10/24 05:49:59;;;;;;;25.35;9.25;;;;;;;;;;5053707;28;20013;-75
2022/10/24 05:52:25;;;;;;;22.30;9.32;;;;;;;;;;5059063;28;20093;-74
2022/10/24 05:54:51;;;;;;;24.38;9.70;;;;;;;;;;5055410;28;20021;-74
2022/10/24 05:57:17;;;;;;;20.38;9.30;;;;;;;;;;5053084;28;20115;-73
2022/10/24 05:59:43;;;;;;;20.00;9.15;;;;;;;;;;5054653;28;20032;-73
2022/10/24 06:02:16;;;;;;;21.40;8.80;;;;;;;;;;5051381;28;20044;-74
2022/10/24 06:04:42;;;;;;;23.90;9.25;;;;;;;;;;5052767;28;20045;-74
2022/10/24 06:07:08;;;;;;;21.15;8.82;;;;;;;;;;5054395;28;20044;-75
2022/10/24 06:09:40;;;;;;;23.50;8.85;;;;;;;;;;5055174;28;20237;-76
2022/10/24 06:12:07;;;;;;;16.42;7.93;;;;;;;;;;5051793;28;20365;-75
2022/10/24 06:14:33;;;;;;;16.30;7.50;;;;;;;;;;5065835;28;20489;-74
2022/10/24 06:16:59;;;;;;;18.45;8.18;;;;;;;;;;5053685;28;20032;-75
2022/10/24 06:19:25;;;;;;;20.65;7.60;;;;;;;;;;5054982;28;20402;-74
2022/10/24 06:21:51;;;;;;;20.58;7.95;;;;;;;;;;5063258;28;20035;-74
2022/10/24 06:24:17;;;;;;;17.02;7.68;;;;;;;;;;5061721;28;20056;-74
2022/10/24 06:26:43;;;;;;;20.15;8.40;;;;;;;;;;5064446;28;20029;-74
2022/10/24 06:29:10;;;;;;;16.85;7.68;;;;;;;;;;5055109;28;20041;-74
2022/10/24 06:31:37;;;;;;;17.98;8.40;;;;;;;;;;5048860;28;20096;-75
2022/10/24 06:34:03;;;;;;;23.70;8.55;;;;;;;;;;5049497;28;20128;-74
2022/10/24 06:36:29;;;;;;;16.35;8.15;;;;;;;;;;5054440;28;20021;-73
2022/10/24 06:38:56;;;;;;;19.63;8.75;;;;;;;;;;5057059;28;20028;-74
2022/10/24 06:41:22;;;;;;;20.05;8.35;;;;;;;;;;5052636;28;20036;-76
2022/10/24 06:43:49;;;;;;;19.17;8.02;;;;;;;;;;5054451;28;20027;-75
2022/10/24 06:46:16;;;;;;;18.08;7.85;;;;;;;;;;5049546;28;20061;-75
2022/10/24 06:48:43;;;;;;;19.15;7.93;;;;;;;;;;5051966;28;20025;-75
2022/10/24 06:51:09;;;;;;;21.20;8.07;;;;;;;;;;5052436;28;20033;-75
2022/10/24 06:53:35;;;;;;;18.85;8.10;;;;;;;;;;5050566;28;20475;-75
2022/10/24 06:56:02;;;;;;;31.38;8.57;;;;;;;;;;5049291;28;20024;-75
2022/10/24 06:58:36;;;;;;;17.95;8.38;;;;;;;;;;5047954;28;20032;-75
2022/10/24 07:01:15;;;;;;;23.33;8.32;;;;;;;;;;5050995;28;20037;-75
2022/10/24 07:03:42;;;;;;;22.20;8.93;;;;;;;;;;5049675;28;20032;-75
2022/10/24 07:06:09;;;;;;;16.67;8.55;;;;;;;;;;5049947;28;20025;-75
2022/10/24 07:08:36;;;;;;;19.75;8.77;;;;;;;;;;5051547;28;20085;-74
2022/10/24 07:11:02;;;;;;;32.58;10.05;;;;;;;;;;5058254;28;20040;-75
2022/10/24 07:13:29;;;;;;;23.83;9.15;;;;;;;;;;5051456;28;20037;-74
2022/10/24 07:15:55;;;;;;;24.05;9.95;;;;;;;;;;5049017;28;20033;-74
2022/10/24 07:18:21;;;;;;;22.90;8.77;;;;;;;;;;5051594;28;20093;-74
2022/10/24 07:20:47;;;;;;;25.55;9.55;;;;;;;;;;5057967;28;20043;-75
2022/10/24 07:23:14;;;;;;;21.80;9.50;;;;;;;;;;5048646;28;20410;-74
2022/10/24 07:25:40;;;;;;;23.88;8.70;;;;;;;;;;5050372;28;20036;-75
2022/10/24 07:28:07;;;;;;;25.50;9.07;;;;;;;;;;5048180;28;20552;-75
2022/10/24 07:30:33;;;;;;;23.67;8.40;;;;;;;;;;5048932;28;20052;-74
2022/10/24 07:32:59;;;;;;;23.50;9.05;;;;;;;;;;5049464;28;20025;-75
2022/10/24 07:35:26;;;;;;;22.17;8.32;;;;;;;;;;5043306;28;20025;-74
2022/10/24 07:37:52;;;;;;;20.90;8.48;;;;;;;;;;5050995;28;20025;-72
2022/10/24 07:40:18;;;;;;;21.55;9.15;;;;;;;;;;5052257;28;20025;-72
2022/10/24 07:42:44;;;;;;;20.02;9.10;;;;;;;;;;5048196;28;20047;-72
2022/10/24 07:45:11;;;;;;;23.70;9.05;;;;;;;;;;5048250;28;20025;-72
2022/10/24 07:47:37;;;;;;;25.58;8.45;;;;;;;;;;5048981;28;20119;-72
2022/10/24 07:50:03;;;;;;;25.83;7.85;;;;;;;;;;5042477;28;20029;-76
2022/10/24 07:52:29;;;;;;;20.05;7.47;;;;;;;;;;5046222;28;20029;-76
2022/10/24 07:54:56;;;;;;;20.58;8.13;;;;;;;;;;5041508;28;20025;-74
2022/10/24 07:57:23;;;;;;;20.27;7.90;;;;;;;;;;5045823;28;20108;-74
2022/10/24 07:59:49;;;;;;;20.60;7.63;;;;;;;;;;5045249;28;20112;-74
2022/10/24 08:02:15;;;;;;;23.55;7.25;;;;;;;;;;5047647;28;20029;-75
2022/10/24 08:04:41;;;;;;;24.33;6.80;;;;;;;;;;5044058;28;20028;-75
2022/10/24 08:07:11;;;;;;;14.10;6.22;;;;;;;;;;5045920;28;20475;-75
2022/10/24 08:09:41;;;;;;;21.67;6.40;;;;;;;;;;5046728;28;20028;-75
2022/10/24 08:12:07;;;;;;;22.00;6.97;;;;;;;;;;5048352;28;20112;-75
2022/10/24 08:14:33;;;;;;;17.25;6.60;;;;;;;;;;5048581;28;20025;-74
2022/10/24 08:16:59;;;;;;;26.08;6.45;;;;;;;;;;5046957;28;20017;-75
2022/10/24 08:19:25;;;;;;;16.45;6.70;;;;;;;;;;5045373;28;20052;-75
2022/10/24 08:21:52;;;;;;;14.93;5.90;;;;;;;;;;5048271;28;20048;-74
2022/10/24 08:24:18;;;;;;;22.60;7.22;;;;;;;;;;5048801;28;20108;-75
2022/10/24 08:26:44;;;;;;;21.00;6.75;;;;;;;;;;5044190;28;20048;-75
2022/10/24 08:29:10;;;;;;;21.42;6.43;;;;;;;;;;5046827;28;20083;-75
2022/10/24 08:31:38;;;;;;;19.70;6.55;;;;;;;;;;5043646;28;20107;-75
2022/10/24 08:34:07;;;;;;;20.20;6.32;;;;;;;;;;5045549;28;20025;-75
2022/10/24 08:36:35;;;;;;;19.40;6.30;;;;;;;;;;5042518;28;20049;-75
2022/10/24 08:39:01;;;;;;;22.85;6.20;;;;;;;;;;5045892;28;20029;-76
2022/10/24 08:41:32;;;;;;;20.42;6.65;;;;;;;;;;5041598;28;20387;-75
2022/10/24 08:44:00;;;;;;;22.60;6.82;;;;;;;;;;5046806;28;20044;-75
2022/10/24 08:46:36;;;;;;;17.50;7.28;;;;;;;;;;5045492;28;20021;-75
2022/10/24 08:49:05;;;;;;;29.42;7.97;;;;;;;;;;5046108;28;20029;-75
2022/10/24 08:51:37;;;;;;;23.17;7.45;;;;;;;;;;5030965;28;20032;-75
2022/10/24 08:54:04;;;;;;;26.63;7.53;;;;;;;;;;5044105;28;20142;-75
2022/10/24 08:56:32;;;;;;;20.58;7.78;;;;;;;;;;5051481;28;20048;-75
2022/10/24 08:59:00;;;;;;;21.00;7.10;;;;;;;;;;5045700;28;20029;-74
2022/10/24 09:01:32;;;;;;;24.25;7.80;;;;;;;;;;5047129;28;20032;-75
2022/10/24 09:03:59;;;;;;;16.45;7.00;;;;;;;;;;5031436;28;20033;-74
2022/10/24 09:06:26;;;;;;;27.50;7.22;;;;;;;;;;5047624;28;20035;-75
2022/10/24 09:08:54;;;;;;;28.27;8.15;;;;;;;;;;5048561;28;20159;-75
2022/10/24 09:11:23;;;;;;;19.65;7.40;;;;;;;;;;5048345;28;20025;-74
2022/10/24 09:13:49;;;;;;;15.35;6.38;;;;;;;;;;5044863;28;20036;-75
2022/10/24 09:16:19;;;;;;;27.60;6.75;;;;;;;;;;5043635;28;20025;-74
2022/10/24 09:18:46;;;;;;;23.58;6.80;;;;;;;;;;5031362;28;20032;-74
2022/10/24 09:21:13;;;;;;;18.98;6.55;;;;;;;;;;5045986;28;20124;-74
2022/10/24 09:23:40;;;;;;;23.00;7.20;;;;;;;;;;5050097;28;20044;-73
2022/10/24 09:26:08;;;;;;;16.65;6.28;;;;;;;;;;5044138;28;20021;-73
2022/10/24 09:28:37;;;;;;;15.30;6.20;;;;;;;;;;5045549;28;20037;-74
2022/10/24 09:31:12;;;;;;;22.10;7.25;;;;;;;;;;5046253;28;20103;-74
2022/10/24 09:33:41;;;;;;;23.17;7.50;;;;;;;;;;5046501;28;20044;-75
2022/10/24 09:36:10;;;;;;;21.13;7.90;;;;;;;;;;5046012;28;20029;-74
2022/10/24 09:38:36;;;;;;;26.73;7.40;;;;;;;;;;5041737;28;20090;-74
2022/10/24 09:41:07;;;;;;;25.17;8.25;;;;;;;;;;5048354;28;20140;-73
2022/10/24 09:43:49;;;;;;;26.27;8.20;;;;;;;;;;5044667;28;20569;-74
2022/10/24 09:46:17;;;;;;;27.47;8.80;;;;;;;;;;5044869;28;20036;-74
2022/10/24 09:48:43;;;;;;;26.13;7.85;;;;;;;;;;5039127;28;20322;-74
2022/10/24 09:51:16;;;;;;;24.25;8.00;;;;;;;;;;5047094;28;20114;-75
2022/10/24 09:53:42;;;;;;;;;;;;;;;;;;5047137;28;20029;-75
2022/10/24 09:56:13;;;;;;;32.97;11.55;;;;;;;;;;5046763;28;19913;-74
2022/10/24 09:58:40;;;;;;;30.08;10.48;;;;;;;;;;5046931;28;20024;-74
2022/10/24 10:01:14;;;;;;;31.67;11.32;;;;;;;;;;5045919;28;20025;-75
2022/10/24 10:03:41;;;;;;;29.30;9.57;;;;;;;;;;5049772;28;20029;-74
2022/10/24 10:06:16;;;;;;;29.58;9.30;;;;;;;;;;5049240;28;20473;-75
2022/10/24 10:08:48;;;;;;;27.27;9.73;;;;;;;;;;5050561;28;20029;-74
2022/10/24 10:11:14;;;;;;;25.70;9.27;;;;;;;;;;5049712;28;20028;-74
2022/10/24 10:13:48;;;;;;;28.75;10.45;;;;;;;;;;5049097;28;20115;-74
2022/10/24 10:16:25;;;;;;;34.33;11.93;;;;;;;;;;5043382;28;20021;-74
2022/10/24 10:19:00;;;;;;;23.25;7.80;;;;;;;;;;5051105;28;20470;-75
2022/10/24 10:21:27;;;;;;;22.90;8.55;;;;;;;;;;5009735;28;20033;-75
2022/10/24 10:23:58;;;;;;;26.38;7.38;;;;;;;;;;5013493;28;20479;-73
2022/10/24 10:26:24;;;;;;;21.63;6.85;;;;;;;;;;5013081;28;20116;-74
2022/10/24 10:28:56;;;;;;;24.23;7.18;;;;;;;;;;5013681;28;20105;-74
2022/10/24 10:31:27;;;;;;;32.22;9.73;;;;;;;;;;5011084;28;20033;-75
2022/10/24 10:33:53;;;;;;;25.00;8.05;;;;;;;;;;5005358;28;20030;-74
2022/10/24 10:36:22;;;;;;;21.40;6.63;;;;;;;;;;5010971;28;20140;-73
2022/10/24 10:39:11;;;;;;;25.35;7.25;;;;;;;;;;5008017;28;21776;-73
2022/10/24 10:41:43;;;;;;;28.50;6.65;;;;;;;;;;4951645;28;20055;-74
2022/10/24 10:44:24;;;;;;;24.08;6.72;;;;;;;;;;4950976;28;20263;-73
2022/10/24 10:46:53;;;;;;;20.70;6.50;;;;;;;;;;4948244;28;20654;-73
2022/10/24 10:49:25;;;;;;;20.20;6.03;;;;;;;;;;4947674;28;20433;-72
2022/10/24 10:51:57;;;;;;;21.45;6.97;;;;;;;;;;4947971;28;20363;-73
2022/10/24 10:54:32;;;;;;;26.90;7.20;;;;;;;;;;4950274;28;20031;-73
2022/10/24 10:57:19;;;;;;;18.77;6.68;;;;;;;;;;4945737;28;20079;-74
2022/10/24 10:59:56;;;;;;;21.88;7.07;;;;;;;;;;4948489;28;20142;-73
2022/10/24 11:02:31;;;;;;;21.92;7.18;;;;;;;;;;4951485;28;20073;-73
2022/10/24 11:05:16;;;;;;;22.60;7.45;;;;;;;;;;4952739;28;20035;-74
2022/10/24 11:07:48;;;;;;;19.92;6.85;;;;;;;;;;4949485;28;20074;-75
2022/10/24 11:10:17;;;;;;;22.92;8.13;;;;;;;;;;4952317;28;20103;-75
2022/10/24 11:12:45;;;;;;;23.55;8.35;;;;;;;;;;4953635;28;20122;-75
2022/10/24 11:15:22;;;;;;;19.77;7.40;;;;;;;;;;4949516;28;20547;-75
2022/10/24 11:17:52;;;;;;;22.48;7.80;;;;;;;;;;4961991;28;20117;-74
2022/10/24 11:20:18;;;;;;;27.65;8.02;;;;;;;;;;5032024;28;20075;-76
2022/10/24 11:22:50;;;;;;;21.73;7.20;;;;;;;;;;5049104;28;20075;-76
2022/10/24 11:25:23;;;;;;;23.13;6.97;;;;;;;;;;5048219;28;20494;-74
2022/10/24 11:27:52;;;;;;;17.85;5.80;;;;;;;;;;5047472;28;20119;-76
2022/10/24 11:30:20;;;;;;;27.50;7.07;;;;;;;;;;5046870;28;20505;-74
2022/10/24 11:32:54;;;;;;;21.52;6.30;;;;;;;;;;5032384;28;20041;-74
2022/10/24 11:35:28;;;;;;;22.30;6.60;;;;;;;;;;5047335;28;20025;-74
2022/10/24 11:38:07;;;;;;;31.65;7.25;;;;;;;;;;5039046;28;20168;-74
2022/10/24 11:40:34;;;;;;;19.80;6.63;;;;;;;;;;5026742;28;20116;-74
2022/10/24 11:43:00;;;;;;;22.92;7.70;;;;;;;;;;5045829;28;20032;-74
2022/10/24 11:45:38;;;;;;;27.35;6.50;;;;;;;;;;5046714;28;20025;-74
2022/10/24 11:48:04;;;;;;;24.13;7.45;;;;;;;;;;5046255;28;20603;-73
2022/10/24 11:50:38;;;;;;;29.10;6.35;;;;;;;;;;5051460;28;20390;-73
2022/10/24 11:53:24;;;;;;;28.70;7.18;;;;;;;;;;5046203;28;20049;-73
2022/10/24 11:55:58;;;;;;;23.92;5.78;;;;;;;;;;5046972;28;20044;-72
2022/10/24 11:58:25;;;;;;;25.02;7.07;;;;;;;;;;5049848;28;20035;-74
2022/10/24 12:00:51;;;;;;;23.15;6.68;;;;;;;;;;5049982;28;20466;-72
2022/10/24 12:03:26;;;;;;;25.05;6.55;;;;;;;;;;5051774;28;20060;-74
2022/10/24 12:05:59;;;;;;;172.52;120.65;;;;;;;;;;5046053;28;20095;-74
2022/10/24 12:08:43;;;;;;;34.27;13.83;;;;;;;;;;5050010;28;20037;-75
2022/10/24 12:11:45;;;;;;;41.92;14.30;;;;;;;;;;5049501;28;20059;-74
2022/10/24 12:14:17;;;;;;;21.48;6.57;;;;;;;;;;4949853;28;20040;-72
2022/10/24 12:16:52;;;;;;;26.98;6.88;;;;;;;;;;4949697;28;20213;-73
2022/10/24 12:19:20;;;;;;;24.27;9.02;;;;;;;;;;4948272;28;20122;-75
2022/10/24 12:22:01;;;;;;;20.35;6.40;;;;;;;;;;4946967;28;20035;-75
2022/10/24 12:24:29;;;;;;;22.33;6.88;;;;;;;;;;4932653;29;20054;-70
2022/10/24 12:27:27;;;;;;;25.38;6.93;;;;;;;;;;4950708;28;20088;-71
2022/10/24 12:30:05;;;;;;;25.85;9.13;;;;;;;;;;4930822;29;20078;-73
2022/10/24 12:32:41;;;;;;;18.73;5.70;;;;;;;;;;4927133;29;20104;-73
2022/10/24 12:35:26;;;;;;;22.65;6.15;;;;;;;;;;4915729;29;20048;-71
2022/10/24 12:37:52;;;;;;;27.27;6.88;;;;;;;;;;4931711;29;20046;-71
2022/10/24 12:40:37;;;;;;;21.98;7.95;;;;;;;;;;4932545;29;20493;-72
2022/10/24 12:43:03;;;;;;;26.10;7.60;;;;;;;;;;4931912;29;20040;-72
2022/10/24 12:45:30;;;;;;;24.08;7.93;;;;;;;;;;4932114;29;20040;-72
2022/10/24 12:47:59;;;;;;;30.77;7.97;;;;;;;;;;4952997;28;20042;-73
2022/10/24 12:50:27;;;;;;;25.80;8.40;;;;;;;;;;4988194;28;20113;-71
2022/10/24 12:52:53;;;;;;;21.05;7.15;;;;;;;;;;4985687;28;20065;-71
2022/10/24 12:55:37;;;;;;;32.08;8.20;;;;;;;;;;4989202;28;20069;-71
2022/10/24 12:58:04;;;;;;;22.63;7.80;;;;;;;;;;4982168;28;20392;-71
2022/10/24 13:00:32;;;;;;;26.90;8.70;;;;;;;;;;4984817;28;20064;-71
2022/10/24 13:03:37;;;;;;;24.95;10.27;;;;;;;;;;4988159;28;20034;-71
2022/10/24 13:06:12;;;;;;;27.92;9.52;;;;;;;;;;4991756;28;20415;-71
2022/10/24 13:08:59;;;;;;;24.60;10.30;;;;;;;;;;5005828;28;20117;-71
2022/10/24 13:11:43;;;;;;;23.65;9.10;;;;;;;;;;4996776;28;20041;-71
2022/10/24 13:14:21;;;;;;;27.25;9.32;;;;;;;;;;5004482;28;20026;-71
2022/10/24 13:17:01;;;;;;;31.20;9.18;;;;;;;;;;5005070;28;20046;-73
2022/10/24 13:19:27;;;;;;;31.63;10.65;;;;;;;;;;5005149;28;20046;-73
2022/10/24 13:21:55;;;;;;;25.10;9.63;;;;;;;;;;5008660;28;20029;-70
2022/10/24 13:24:23;;;;;;;22.77;9.02;;;;;;;;;;5002011;28;20045;-71
2022/10/24 13:26:54;;;;;;;21.15;8.63;;;;;;;;;;5008060;28;20034;-71
2022/10/24 13:29:23;;;;;;;20.00;8.93;;;;;;;;;;4983175;28;20030;-70
2022/10/24 13:31:49;;;;;;;21.42;7.88;;;;;;;;;;5003814;28;20382;-72
2022/10/24 13:34:17;;;;;;;29.52;8.35;;;;;;;;;;5004728;28;20088;-70
2022/10/24 13:36:44;;;;;;;21.73;7.07;;;;;;;;;;5025384;28;20033;-71
2022/10/24 13:39:12;;;;;;;22.95;8.02;;;;;;;;;;5046944;28;20029;-70
2022/10/24 13:42:04;;;;;;;18.00;7.22;;;;;;;;;;5051608;28;20108;-70
2022/10/24 13:44:36;;;;;;;20.48;8.05;;;;;;;;;;5041485;28;20506;-71
2022/10/24 13:47:23;;;;;;;22.35;8.10;;;;;;;;;;5050783;28;20037;-72
2022/10/24 13:49:58;;;;;;;23.05;7.68;;;;;;;;;;5052347;28;20021;-71
2022/10/24 13:52:29;;;;;;;22.73;7.10;;;;;;;;;;5054257;28;20383;-71
2022/10/24 13:55:04;;;;;;;23.08;7.75;;;;;;;;;;5054531;28;20087;-71
2022/10/24 13:57:34;;;;;;;26.70;7.47;;;;;;;;;;5048660;28;20119;-71
2022/10/24 14:00:02;;;;;;;21.83;6.57;;;;;;;;;;5047768;28;20093;-71
2022/10/24 14:02:29;;;;;;;30.83;7.68;;;;;;;;;;5048616;28;20028;-71
2022/10/24 14:04:56;;;;;;;21.13;7.80;;;;;;;;;;5052245;28;20065;-70
2022/10/24 14:07:29;;;;;;;24.05;7.05;;;;;;;;;;5033848;28;20032;-71
2022/10/24 14:09:58;;;;;;;22.63;6.78;;;;;;;;;;5050568;28;20025;-71
2022/10/24 14:12:26;;;;;;;19.23;6.50;;;;;;;;;;5050825;28;20033;-71
2022/10/24 14:14:53;;;;;;;22.02;7.28;;;;;;;;;;5052440;28;20036;-71
2022/10/24 14:17:21;;;;;;;21.05;7.88;;;;;;;;;;5052546;28;20029;-71
2022/10/24 14:19:52;;;;;;;25.13;8.80;;;;;;;;;;5053552;28;20041;-72
2022/10/24 14:22:19;;;;;;;29.65;9.90;;;;;;;;;;5052002;28;20040;-71
2022/10/24 14:24:47;;;;;;;40.25;14.13;;;;;;;;;;5036251;28;20107;-71
2022/10/24 14:27:13;;;;;;;29.60;9.15;;;;;;;;;;5048501;28;20037;-72
2022/10/24 14:29:49;;;;;;;27.75;9.18;;;;;;;;;;5049674;28;20029;-71
2022/10/24 14:32:15;;;;;;;29.45;8.50;;;;;;;;;;5053117;28;20068;-71
2022/10/24 14:34:41;;;;;;;30.48;8.35;;;;;;;;;;5052112;28;20486;-72
2022/10/24 14:37:11;;;;;;;24.83;9.27;;;;;;;;;;5050679;28;20111;-71
2022/10/24 14:39:38;;;;;;;29.17;8.38;;;;;;;;;;5043849;28;20071;-72
2022/10/24 14:42:04;;;;;;;37.28;10.35;;;;;;;;;;5050078;28;20367;-72
2022/10/24 14:44:31;;;;;;;25.88;7.60;;;;;;;;;;5033366;28;20035;-72